createdAt,value
2023-05-22T00:01:49.984Z,2.10
2023-05-22T00:06:53.694Z,2.50
2023-05-22T00:11:55.394Z,2.50
2023-05-22T00:16:59.321Z,2.50
2023-05-22T00:22:04.018Z,2.90
2023-05-22T00:27:05.833Z,2.50
2023-05-22T00:32:07.835Z,2.40
2023-05-22T00:37:09.488Z,2.70
2023-05-22T00:42:11.694Z,2.40
2023-05-22T00:47:13.707Z,2.90
2023-05-22T00:52:15.855Z,2.30
2023-05-22T00:57:17.844Z,2.60
2023-05-22T01:02:19.896Z,2.10
2023-05-22T01:07:21.567Z,2.60
2023-05-22T01:12:34.603Z,2.40
2023-05-22T01:22:52.074Z,2.50
2023-05-22T01:27:59.888Z,2.50
2023-05-22T01:33:01.841Z,2.40
2023-05-22T01:38:03.749Z,2.80
2023-05-22T01:43:05.745Z,2.40
2023-05-22T01:48:07.469Z,2.50
2023-05-22T01:53:15.938Z,2.80
2023-05-22T01:58:36.249Z,2.40
2023-05-22T02:03:38.140Z,2.20
2023-05-22T02:08:41.341Z,2.40
2023-05-22T02:13:42.957Z,2.80
2023-05-22T02:18:45.053Z,2.80
2023-05-22T02:23:46.794Z,2.70
2023-05-22T02:28:48.650Z,2.80
2023-05-22T02:33:50.563Z,2.60
2023-05-22T02:38:52.441Z,3.00
2023-05-22T02:43:54.301Z,2.80
2023-05-22T02:48:55.998Z,2.80
2023-05-22T02:53:57.872Z,2.80
2023-05-22T02:58:59.822Z,3.10
2023-05-22T03:04:03.112Z,4.10
2023-05-22T03:09:05.113Z,3.20
2023-05-22T03:14:06.991Z,3.30
2023-05-22T03:19:12.899Z,3.10
2023-05-22T03:24:15.043Z,3.20
2023-05-22T03:29:17.002Z,2.70
2023-05-22T03:34:18.802Z,3.70
2023-05-22T03:39:22.276Z,3.90
2023-05-22T03:44:24.473Z,3.10
2023-05-22T03:49:26.129Z,3.00
2023-05-22T03:54:27.877Z,3.30
2023-05-22T03:59:29.734Z,3.30
2023-05-22T04:04:35.134Z,3.60
2023-05-22T04:09:37.986Z,3.80
2023-05-22T04:14:39.766Z,3.50
2023-05-22T04:19:41.629Z,4.60
2023-05-22T04:24:43.422Z,4.60
2023-05-22T04:29:48.614Z,6.70
2023-05-22T04:34:50.683Z,4.80
2023-05-22T04:39:52.537Z,3.80
2023-05-22T04:44:54.207Z,3.50
2023-05-22T04:49:56.087Z,2.80
2023-05-22T04:54:59.948Z,3.20
2023-05-22T05:00:03.849Z,3.00
2023-05-22T05:05:05.726Z,3.30
2023-05-22T05:10:08.239Z,2.50
2023-05-22T05:15:10.165Z,3.30
2023-05-22T05:20:12.180Z,3.00
2023-05-22T05:25:14.972Z,2.90
2023-05-22T05:30:18.299Z,2.70
2023-05-22T05:35:22.209Z,2.80
2023-05-22T05:40:24.695Z,2.30
2023-05-22T05:45:26.575Z,2.40
2023-05-22T05:50:28.462Z,2.20
2023-05-22T05:55:30.797Z,2.40
2023-05-22T06:00:33.553Z,2.40
2023-05-22T06:05:35.310Z,2.70
2023-05-22T06:10:37.448Z,2.70
2023-05-22T06:15:39.515Z,2.20
2023-05-22T06:20:41.580Z,2.70
2023-05-22T06:25:45.614Z,2.80
2023-05-22T06:30:47.811Z,2.50
2023-05-22T06:35:49.796Z,2.40
2023-05-22T06:40:51.462Z,2.30
2023-05-22T06:45:55.031Z,2.10
2023-05-22T06:50:56.941Z,2.30
2023-05-22T06:55:58.638Z,2.90
2023-05-22T07:01:00.440Z,2.40
2023-05-22T07:06:02.263Z,2.30
2023-05-22T07:11:04.358Z,2.30
2023-05-22T07:16:06.402Z,2.90
2023-05-22T07:21:08.340Z,2.60
2023-05-22T07:26:10.200Z,2.50
2023-05-22T07:31:12.033Z,3.00
2023-05-22T07:36:13.752Z,2.60
2023-05-22T07:41:15.524Z,3.00
2023-05-22T07:46:17.403Z,2.40
2023-05-22T07:51:19.190Z,2.80
2023-05-22T07:56:21.049Z,2.70
2023-05-22T08:01:23.129Z,2.60
2023-05-22T08:06:24.868Z,3.20
2023-05-22T08:11:26.795Z,3.10
2023-05-22T08:16:31.647Z,2.80
2023-05-22T08:21:34.840Z,3.30
2023-05-22T08:26:36.945Z,2.30
2023-05-22T08:31:38.942Z,2.90
2023-05-22T08:36:40.784Z,3.20
2023-05-22T08:41:42.656Z,3.30
2023-05-22T08:46:44.461Z,3.40
2023-05-22T08:51:48.256Z,3.30
2023-05-22T08:56:56.776Z,2.90
2023-05-22T09:01:59.211Z,3.00
2023-05-22T09:07:00.859Z,2.90
2023-05-22T09:12:02.616Z,3.70
2023-05-22T09:17:04.623Z,3.10
2023-05-22T09:22:06.395Z,2.90
2023-05-22T09:27:08.274Z,3.70
2023-05-22T09:32:13.785Z,3.30
2023-05-22T09:37:18.600Z,3.00
2023-05-22T09:42:20.486Z,3.50
2023-05-22T09:47:24.412Z,2.80
2023-05-22T09:52:28.483Z,2.90
2023-05-22T09:57:32.241Z,3.10
2023-05-22T10:02:34.492Z,2.80
2023-05-22T10:07:37.062Z,2.80
2023-05-22T10:12:44.662Z,2.90
2023-05-22T10:17:46.561Z,3.40
2023-05-22T10:22:48.500Z,3.20
2023-05-22T10:27:52.940Z,3.20
2023-05-22T10:33:03.965Z,2.80
2023-05-22T10:38:24.439Z,3.00
2023-05-22T10:43:29.894Z,3.30
2023-05-22T10:48:43.821Z,3.10
2023-05-22T10:53:59.905Z,3.00
2023-05-22T10:59:02.871Z,3.30
2023-05-22T11:04:04.562Z,3.40
2023-05-22T11:09:21.625Z,2.70
2023-05-22T11:14:23.669Z,4.30
2023-05-22T11:19:25.668Z,3.10
2023-05-22T11:24:32.129Z,3.00
2023-05-22T11:29:34.208Z,3.70
2023-05-22T11:34:39.386Z,3.60
2023-05-22T11:39:41.264Z,3.20
2023-05-22T11:44:43.032Z,3.00
2023-05-22T11:49:44.661Z,3.10
2023-05-22T11:54:46.978Z,2.90
2023-05-22T11:59:48.970Z,2.70
2023-05-22T12:04:57.433Z,2.80
2023-05-22T12:09:59.525Z,2.90
2023-05-22T12:15:01.272Z,2.90
2023-05-22T12:20:03.853Z,2.60
2023-05-22T12:25:13.792Z,2.70
2023-05-22T12:30:16.396Z,3.20
2023-05-22T12:35:18.470Z,2.40
2023-05-22T12:40:20.323Z,2.70
2023-05-22T12:45:22.257Z,2.40
2023-05-22T12:50:24.236Z,3.00
2023-05-22T12:55:26.120Z,3.10
2023-05-22T13:00:28.020Z,2.60
2023-05-22T13:05:29.969Z,3.00
2023-05-22T13:10:31.958Z,2.80
2023-05-22T13:15:33.950Z,3.10
2023-05-22T13:20:35.910Z,2.60
2023-05-22T13:25:37.839Z,2.90
2023-05-22T13:30:40.258Z,2.80
2023-05-22T13:35:42.745Z,2.80
2023-05-22T13:40:48.334Z,2.50
2023-05-22T13:45:50.628Z,3.00
2023-05-22T13:50:52.523Z,2.40
2023-05-22T13:55:54.392Z,2.30
2023-05-22T14:00:56.290Z,2.70
2023-05-22T14:06:00.148Z,2.40
2023-05-22T14:11:01.816Z,2.60
2023-05-22T14:16:03.606Z,2.50
2023-05-22T14:21:05.646Z,2.50
2023-05-22T14:26:07.703Z,2.40
2023-05-22T14:31:09.609Z,2.50
2023-05-22T14:36:11.568Z,2.20
2023-05-22T14:41:13.567Z,2.30
2023-05-22T14:46:15.440Z,2.40
2023-05-22T14:51:21.091Z,2.70
2023-05-22T14:56:22.805Z,2.50
2023-05-22T15:01:24.703Z,2.50
2023-05-22T15:06:26.579Z,2.60
2023-05-22T15:11:28.613Z,2.20
2023-05-22T15:16:30.619Z,2.70
2023-05-22T15:21:33.904Z,2.30
2023-05-22T15:26:35.736Z,2.50
2023-05-22T15:31:37.737Z,2.70
2023-05-22T15:36:39.670Z,3.70
2023-05-22T15:41:44.693Z,4.20
2023-05-22T15:46:50.799Z,5.10
2023-05-22T15:51:52.850Z,6.50
2023-05-22T15:56:54.568Z,7.50
2023-05-22T16:01:56.405Z,8.50
2023-05-22T16:06:58.215Z,5.40
2023-05-22T16:12:00.233Z,6.10
2023-05-22T16:17:01.944Z,4.00
2023-05-22T16:22:04.021Z,4.10
2023-05-22T16:27:06.043Z,3.00
2023-05-22T16:32:07.830Z,2.60
2023-05-22T16:37:09.488Z,2.60
2023-05-22T16:42:11.430Z,2.60
2023-05-22T16:47:13.311Z,2.90
2023-05-22T16:52:15.393Z,3.60
2023-05-22T16:57:17.134Z,3.30
2023-05-22T17:02:19.048Z,3.00
2023-05-22T17:07:20.770Z,3.70
2023-05-22T17:12:22.451Z,3.90
2023-05-22T17:17:24.396Z,3.90
2023-05-22T17:22:26.454Z,4.10
2023-05-22T17:27:36.225Z,4.50
2023-05-22T17:32:38.582Z,5.60
2023-05-22T17:37:40.617Z,5.80
2023-05-22T17:42:42.580Z,4.60
2023-05-22T17:47:44.804Z,3.10
2023-05-22T17:52:46.853Z,3.10
2023-05-22T17:57:48.717Z,3.10
2023-05-22T18:02:50.637Z,2.40
2023-05-22T18:07:52.688Z,2.80
2023-05-22T18:12:54.655Z,3.60
2023-05-22T18:17:56.517Z,3.30
2023-05-22T18:22:58.663Z,2.50
2023-05-22T18:28:00.499Z,2.70
2023-05-22T18:33:02.229Z,2.70
2023-05-22T18:38:04.145Z,2.90
2023-05-22T18:43:05.977Z,2.80
2023-05-22T18:48:07.960Z,3.60
2023-05-22T18:53:10.164Z,4.00
2023-05-22T18:58:12.175Z,3.80
2023-05-22T19:03:14.314Z,4.60
2023-05-22T19:08:16.442Z,5.70
2023-05-22T19:13:20.931Z,5.10
2023-05-22T19:18:23.993Z,4.90
2023-05-22T19:23:26.083Z,3.50
2023-05-22T19:28:28.593Z,3.70
2023-05-22T19:33:30.392Z,4.60
2023-05-22T19:38:32.378Z,4.60
2023-05-22T19:43:34.174Z,6.50
2023-05-22T19:48:35.908Z,5.80
2023-05-22T19:53:37.851Z,5.60
2023-05-22T19:58:39.942Z,4.70
2023-05-22T20:03:42.837Z,5.00
2023-05-22T20:08:46.199Z,4.50
2023-05-22T20:13:48.129Z,5.40
2023-05-22T20:18:50.035Z,7.40
2023-05-22T20:23:55.303Z,6.80
2023-05-22T20:28:56.999Z,5.90
2023-05-22T20:33:58.846Z,6.00
2023-05-22T20:39:00.802Z,7.90
2023-05-22T20:44:02.430Z,7.70
2023-05-22T20:49:04.273Z,6.90
2023-05-22T20:54:06.154Z,5.90
2023-05-22T20:59:08.165Z,5.70
2023-05-22T21:04:10.899Z,5.60
2023-05-22T21:09:12.590Z,4.50
2023-05-22T21:14:14.571Z,4.80
2023-05-22T21:19:16.497Z,4.80
2023-05-22T21:24:18.525Z,4.00
2023-05-22T21:29:20.308Z,4.50
2023-05-22T21:34:21.990Z,4.10
2023-05-22T21:39:23.867Z,4.20
2023-05-22T21:44:25.836Z,4.00
2023-05-22T21:49:27.477Z,4.00
2023-05-22T21:54:30.102Z,3.90
2023-05-22T21:59:31.831Z,4.10
2023-05-22T22:04:34.883Z,4.10
2023-05-22T22:09:37.076Z,3.60
2023-05-22T22:14:39.368Z,3.90
2023-05-22T22:19:41.116Z,3.60
2023-05-22T22:24:42.700Z,4.20
2023-05-22T22:29:44.499Z,4.10
2023-05-22T22:34:46.434Z,4.20
2023-05-22T22:39:48.248Z,4.40
2023-05-22T22:44:49.919Z,4.40
2023-05-22T22:49:55.275Z,4.20
2023-05-22T22:54:58.486Z,4.30
2023-05-22T23:00:00.358Z,5.10
2023-05-22T23:05:02.244Z,4.70
2023-05-22T23:10:04.623Z,4.60
2023-05-22T23:15:07.220Z,4.60
2023-05-22T23:20:09.512Z,5.00
2023-05-22T23:25:11.414Z,4.40
2023-05-22T23:30:13.277Z,4.70
2023-05-22T23:35:15.148Z,4.80
2023-05-22T23:40:17.052Z,5.20
2023-05-22T23:45:21.151Z,4.80
2023-05-22T23:50:24.818Z,4.60
2023-05-22T23:55:30.891Z,3.90
